sensor_id;sensor_type;location;lat;lon;timestamp;P1;durP1;ratioP1;P2;durP2;ratioP2
8281;SDS011;25606;42.686;23.136;2023-02-28T00:01:05;6.43;;;4.67;;
8281;SDS011;25606;42.686;23.136;2023-02-28T00:03:32;6.20;;;4.50;;
8281;SDS011;25606;42.686;23.136;2023-02-28T00:06:00;5.87;;;4.30;;
8281;SDS011;25606;42.686;23.136;2023-02-28T00:08:28;4.83;;;4.10;;
8281;SDS011;25606;42.686;23.136;2023-02-28T00:11:00;5.20;;;4.30;;
8281;SDS011;25606;42.686;23.136;2023-02-28T00:13:27;4.33;;;3.80;;
8281;SDS011;25606;42.686;23.136;2023-02-28T00:16:01;7.60;;;4.63;;
8281;SDS011;25606;42.686;23.136;2023-02-28T00:18:28;6.00;;;4.57;;
8281;SDS011;25606;42.686;23.136;2023-02-28T00:20:56;5.13;;;3.60;;
8281;SDS011;25606;42.686;23.136;2023-02-28T00:23:23;6.43;;;4.13;;
8281;SDS011;25606;42.686;23.136;2023-02-28T00:25:51;6.37;;;5.30;;
8281;SDS011;25606;42.686;23.136;2023-02-28T00:28:20;8.97;;;6.20;;
8281;SDS011;25606;42.686;23.136;2023-02-28T00:30:47;8.63;;;6.33;;
8281;SDS011;25606;42.686;23.136;2023-02-28T00:33:15;9.03;;;6.00;;
8281;SDS011;25606;42.686;23.136;2023-02-28T00:35:42;8.20;;;5.87;;
8281;SDS011;25606;42.686;23.136;2023-02-28T00:38:11;11.40;;;7.63;;
8281;SDS011;25606;42.686;23.136;2023-02-28T00:40:38;13.90;;;7.03;;
8281;SDS011;25606;42.686;23.136;2023-02-28T00:43:06;14.00;;;8.47;;
8281;SDS011;25606;42.686;23.136;2023-02-28T00:45:34;12.20;;;7.67;;
8281;SDS011;25606;42.686;23.136;2023-02-28T00:48:02;10.23;;;6.93;;
8281;SDS011;25606;42.686;23.136;2023-02-28T00:50:29;11.93;;;7.67;;
8281;SDS011;25606;42.686;23.136;2023-02-28T00:52:57;8.13;;;6.07;;
8281;SDS011;25606;42.686;23.136;2023-02-28T00:55:24;9.87;;;5.50;;
8281;SDS011;25606;42.686;23.136;2023-02-28T00:57:51;7.37;;;5.30;;
8281;SDS011;25606;42.686;23.136;2023-02-28T01:00:19;7.97;;;4.70;;
8281;SDS011;25606;42.686;23.136;2023-02-28T01:02:48;4.97;;;3.90;;
8281;SDS011;25606;42.686;23.136;2023-02-28T01:05:15;8.77;;;5.40;;
8281;SDS011;25606;42.686;23.136;2023-02-28T01:07:42;7.97;;;5.87;;
8281;SDS011;25606;42.686;23.136;2023-02-28T01:10:10;182.30;;;13.27;;
8281;SDS011;25606;42.686;23.136;2023-02-28T01:12:37;165.90;;;12.80;;
8281;SDS011;25606;42.686;23.136;2023-02-28T01:15:05;135.90;;;11.13;;
8281;SDS011;25606;42.686;23.136;2023-02-28T01:17:33;127.23;;;12.30;;
8281;SDS011;25606;42.686;23.136;2023-02-28T01:20:02;142.63;;;13.83;;
8281;SDS011;25606;42.686;23.136;2023-02-28T01:22:29;38.53;;;8.87;;
8281;SDS011;25606;42.686;23.136;2023-02-28T01:24:56;14.33;;;7.73;;
8281;SDS011;25606;42.686;23.136;2023-02-28T01:27:24;13.17;;;8.77;;
8281;SDS011;25606;42.686;23.136;2023-02-28T01:29:51;18.40;;;9.47;;
8281;SDS011;25606;42.686;23.136;2023-02-28T01:32:18;14.60;;;9.13;;
8281;SDS011;25606;42.686;23.136;2023-02-28T01:34:46;18.60;;;9.67;;
8281;SDS011;25606;42.686;23.136;2023-02-28T01:37:15;17.10;;;10.37;;
8281;SDS011;25606;42.686;23.136;2023-02-28T01:39:42;38.37;;;12.97;;
8281;SDS011;25606;42.686;23.136;2023-02-28T01:42:09;167.90;;;15.20;;
8281;SDS011;25606;42.686;23.136;2023-02-28T01:44:57;99.20;;;12.87;;
8281;SDS011;25606;42.686;23.136;2023-02-28T01:47:25;67.50;;;14.00;;
8281;SDS011;25606;42.686;23.136;2023-02-28T01:49:54;60.73;;;12.27;;
8281;SDS011;25606;42.686;23.136;2023-02-28T01:52:23;55.97;;;12.13;;
8281;SDS011;25606;42.686;23.136;2023-02-28T01:54:51;107.60;;;13.33;;
8281;SDS011;25606;42.686;23.136;2023-02-28T01:57:19;96.93;;;13.10;;
8281;SDS011;25606;42.686;23.136;2023-02-28T01:59:49;38.57;;;10.30;;
8281;SDS011;25606;42.686;23.136;2023-02-28T02:02:19;26.63;;;10.23;;
8281;SDS011;25606;42.686;23.136;2023-02-28T02:04:50;74.33;;;11.83;;
8281;SDS011;25606;42.686;23.136;2023-02-28T02:07:18;49.27;;;12.20;;
8281;SDS011;25606;42.686;23.136;2023-02-28T02:09:46;84.57;;;12.67;;
8281;SDS011;25606;42.686;23.136;2023-02-28T02:12:17;48.17;;;11.50;;
8281;SDS011;25606;42.686;23.136;2023-02-28T02:14:52;66.13;;;13.47;;
8281;SDS011;25606;42.686;23.136;2023-02-28T02:17:26;103.70;;;14.13;;
8281;SDS011;25606;42.686;23.136;2023-02-28T02:22:51;70.77;;;12.60;;
8281;SDS011;25606;42.686;23.136;2023-02-28T02:25:29;68.37;;;11.67;;
8281;SDS011;25606;42.686;23.136;2023-02-28T02:28:10;57.67;;;10.80;;
8281;SDS011;25606;42.686;23.136;2023-02-28T02:30:58;90.97;;;12.10;;
8281;SDS011;25606;42.686;23.136;2023-02-28T02:33:33;37.87;;;11.10;;
8281;SDS011;25606;42.686;23.136;2023-02-28T02:36:06;47.30;;;10.17;;
8281;SDS011;25606;42.686;23.136;2023-02-28T02:38:38;47.50;;;10.00;;
8281;SDS011;25606;42.686;23.136;2023-02-28T02:41:12;64.97;;;12.57;;
8281;SDS011;25606;42.686;23.136;2023-02-28T02:43:43;41.83;;;10.33;;
8281;SDS011;25606;42.686;23.136;2023-02-28T02:46:13;48.97;;;10.63;;
8281;SDS011;25606;42.686;23.136;2023-02-28T02:48:41;45.83;;;10.60;;
8281;SDS011;25606;42.686;23.136;2023-02-28T02:51:13;32.30;;;7.27;;
8281;SDS011;25606;42.686;23.136;2023-02-28T02:53:42;32.20;;;8.40;;
8281;SDS011;25606;42.686;23.136;2023-02-28T02:56:14;52.40;;;8.60;;
8281;SDS011;25606;42.686;23.136;2023-02-28T02:58:43;21.83;;;7.27;;
8281;SDS011;25606;42.686;23.136;2023-02-28T03:01:12;34.87;;;8.93;;
8281;SDS011;25606;42.686;23.136;2023-02-28T03:03:41;32.60;;;9.17;;
8281;SDS011;25606;42.686;23.136;2023-02-28T03:06:08;28.63;;;8.73;;
8281;SDS011;25606;42.686;23.136;2023-02-28T03:08:37;40.67;;;9.23;;
8281;SDS011;25606;42.686;23.136;2023-02-28T03:11:06;24.87;;;8.30;;
8281;SDS011;25606;42.686;23.136;2023-02-28T03:13:42;17.07;;;6.67;;
8281;SDS011;25606;42.686;23.136;2023-02-28T03:16:20;9.53;;;6.87;;
8281;SDS011;25606;42.686;23.136;2023-02-28T03:18:52;15.23;;;6.30;;
8281;SDS011;25606;42.686;23.136;2023-02-28T03:21:22;16.03;;;6.60;;
8281;SDS011;25606;42.686;23.136;2023-02-28T03:23:56;9.00;;;5.80;;
8281;SDS011;25606;42.686;23.136;2023-02-28T03:26:27;15.63;;;5.70;;
8281;SDS011;25606;42.686;23.136;2023-02-28T03:28:55;11.97;;;5.57;;
8281;SDS011;25606;42.686;23.136;2023-02-28T03:31:25;9.27;;;5.87;;
8281;SDS011;25606;42.686;23.136;2023-02-28T03:33:55;8.77;;;5.33;;
8281;SDS011;25606;42.686;23.136;2023-02-28T03:36:26;7.17;;;4.80;;
8281;SDS011;25606;42.686;23.136;2023-02-28T03:38:57;7.03;;;5.53;;
8281;SDS011;25606;42.686;23.136;2023-02-28T03:41:29;13.97;;;5.60;;
8281;SDS011;25606;42.686;23.136;2023-02-28T03:43:58;13.93;;;6.47;;
8281;SDS011;25606;42.686;23.136;2023-02-28T03:46:28;20.70;;;6.27;;
8281;SDS011;25606;42.686;23.136;2023-02-28T03:48:59;16.87;;;6.57;;
8281;SDS011;25606;42.686;23.136;2023-02-28T03:51:29;19.90;;;6.57;;
8281;SDS011;25606;42.686;23.136;2023-02-28T03:53:59;24.23;;;6.57;;
8281;SDS011;25606;42.686;23.136;2023-02-28T03:56:30;14.60;;;6.47;;
8281;SDS011;25606;42.686;23.136;2023-02-28T03:59:00;13.00;;;6.47;;
8281;SDS011;25606;42.686;23.136;2023-02-28T04:01:30;25.77;;;7.00;;
8281;SDS011;25606;42.686;23.136;2023-02-28T04:03:58;31.50;;;6.80;;
8281;SDS011;25606;42.686;23.136;2023-02-28T04:06:26;27.90;;;5.97;;
8281;SDS011;25606;42.686;23.136;2023-02-28T04:08:53;133.27;;;11.37;;
8281;SDS011;25606;42.686;23.136;2023-02-28T04:11:23;84.20;;;9.53;;
8281;SDS011;25606;42.686;23.136;2023-02-28T04:13:50;62.43;;;9.90;;
8281;SDS011;25606;42.686;23.136;2023-02-28T04:16:18;118.73;;;11.77;;
8281;SDS011;25606;42.686;23.136;2023-02-28T04:18:45;120.57;;;11.57;;
8281;SDS011;25606;42.686;23.136;2023-02-28T04:21:12;68.73;;;9.83;;
8281;SDS011;25606;42.686;23.136;2023-02-28T04:23:40;73.83;;;10.17;;
8281;SDS011;25606;42.686;23.136;2023-02-28T04:26:07;98.83;;;11.87;;
8281;SDS011;25606;42.686;23.136;2023-02-28T04:28:36;30.37;;;9.40;;
8281;SDS011;25606;42.686;23.136;2023-02-28T04:31:04;52.87;;;9.50;;
8281;SDS011;25606;42.686;23.136;2023-02-28T04:33:31;16.83;;;7.83;;
8281;SDS011;25606;42.686;23.136;2023-02-28T04:35:59;43.83;;;9.43;;
8281;SDS011;25606;42.686;23.136;2023-02-28T04:38:27;40.43;;;8.80;;
8281;SDS011;25606;42.686;23.136;2023-02-28T04:40:56;27.50;;;8.83;;
8281;SDS011;25606;42.686;23.136;2023-02-28T04:43:23;54.50;;;9.43;;
8281;SDS011;25606;42.686;23.136;2023-02-28T04:45:52;64.90;;;9.57;;
8281;SDS011;25606;42.686;23.136;2023-02-28T04:48:22;15.77;;;7.67;;
8281;SDS011;25606;42.686;23.136;2023-02-28T04:50:49;26.30;;;8.70;;
8281;SDS011;25606;42.686;23.136;2023-02-28T04:53:17;34.27;;;8.43;;
8281;SDS011;25606;42.686;23.136;2023-02-28T04:55:44;145.80;;;13.00;;
8281;SDS011;25606;42.686;23.136;2023-02-28T04:58:12;154.57;;;14.67;;
8281;SDS011;25606;42.686;23.136;2023-02-28T05:00:39;125.03;;;12.40;;
8281;SDS011;25606;42.686;23.136;2023-02-28T05:03:07;43.40;;;9.67;;
8281;SDS011;25606;42.686;23.136;2023-02-28T05:05:35;39.83;;;9.30;;
8281;SDS011;25606;42.686;23.136;2023-02-28T05:08:02;41.47;;;9.53;;
8281;SDS011;25606;42.686;23.136;2023-02-28T05:10:30;36.47;;;9.90;;
8281;SDS011;25606;42.686;23.136;2023-02-28T05:12:57;65.67;;;10.30;;
8281;SDS011;25606;42.686;23.136;2023-02-28T05:15:25;34.00;;;9.30;;
8281;SDS011;25606;42.686;23.136;2023-02-28T05:17:52;43.17;;;10.47;;
8281;SDS011;25606;42.686;23.136;2023-02-28T05:20:21;41.43;;;10.47;;
8281;SDS011;25606;42.686;23.136;2023-02-28T05:22:49;66.90;;;11.30;;
8281;SDS011;25606;42.686;23.136;2023-02-28T05:25:18;29.60;;;8.80;;
8281;SDS011;25606;42.686;23.136;2023-02-28T05:27:46;70.93;;;11.37;;
8281;SDS011;25606;42.686;23.136;2023-02-28T05:30:14;61.70;;;11.13;;
8281;SDS011;25606;42.686;23.136;2023-02-28T05:32:41;73.90;;;12.30;;
8281;SDS011;25606;42.686;23.136;2023-02-28T05:35:09;76.83;;;10.50;;
8281;SDS011;25606;42.686;23.136;2023-02-28T05:37:38;78.50;;;10.60;;
8281;SDS011;25606;42.686;23.136;2023-02-28T05:40:06;57.77;;;9.97;;
8281;SDS011;25606;42.686;23.136;2023-02-28T05:42:35;42.87;;;10.43;;
8281;SDS011;25606;42.686;23.136;2023-02-28T05:45:03;32.90;;;11.00;;
8281;SDS011;25606;42.686;23.136;2023-02-28T05:47:30;75.47;;;11.87;;
8281;SDS011;25606;42.686;23.136;2023-02-28T05:49:57;41.33;;;11.20;;
8281;SDS011;25606;42.686;23.136;2023-02-28T05:52:25;86.73;;;11.87;;
8281;SDS011;25606;42.686;23.136;2023-02-28T05:54:54;36.60;;;10.47;;
8281;SDS011;25606;42.686;23.136;2023-02-28T05:57:21;28.10;;;11.40;;
8281;SDS011;25606;42.686;23.136;2023-02-28T05:59:48;55.30;;;11.37;;
8281;SDS011;25606;42.686;23.136;2023-02-28T06:02:16;66.90;;;13.27;;
8281;SDS011;25606;42.686;23.136;2023-02-28T06:04:44;53.33;;;12.30;;
8281;SDS011;25606;42.686;23.136;2023-02-28T06:07:11;46.47;;;11.70;;
8281;SDS011;25606;42.686;23.136;2023-02-28T06:09:39;49.10;;;11.67;;
8281;SDS011;25606;42.686;23.136;2023-02-28T06:12:11;41.57;;;11.73;;
8281;SDS011;25606;42.686;23.136;2023-02-28T06:14:38;98.50;;;12.33;;
8281;SDS011;25606;42.686;23.136;2023-02-28T06:17:06;82.60;;;11.50;;
8281;SDS011;25606;42.686;23.136;2023-02-28T06:19:33;109.13;;;13.70;;
8281;SDS011;25606;42.686;23.136;2023-02-28T06:22:02;53.87;;;12.07;;
8281;SDS011;25606;42.686;23.136;2023-02-28T06:24:29;62.63;;;14.23;;
8281;SDS011;25606;42.686;23.136;2023-02-28T06:26:57;77.77;;;13.57;;
8281;SDS011;25606;42.686;23.136;2023-02-28T06:29:31;79.80;;;12.20;;
8281;SDS011;25606;42.686;23.136;2023-02-28T06:31:58;30.60;;;11.23;;
8281;SDS011;25606;42.686;23.136;2023-02-28T06:34:27;66.83;;;10.30;;
8281;SDS011;25606;42.686;23.136;2023-02-28T06:36:54;77.07;;;11.70;;
8281;SDS011;25606;42.686;23.136;2023-02-28T06:39:21;71.63;;;14.63;;
8281;SDS011;25606;42.686;23.136;2023-02-28T06:41:49;94.03;;;14.93;;
8281;SDS011;25606;42.686;23.136;2023-02-28T06:44:17;58.93;;;19.17;;
8281;SDS011;25606;42.686;23.136;2023-02-28T06:46:46;63.20;;;13.57;;
8281;SDS011;25606;42.686;23.136;2023-02-28T06:49:14;84.23;;;13.23;;
8281;SDS011;25606;42.686;23.136;2023-02-28T06:51:42;41.20;;;12.73;;
8281;SDS011;25606;42.686;23.136;2023-02-28T06:54:10;60.30;;;12.30;;
8281;SDS011;25606;42.686;23.136;2023-02-28T06:56:37;116.27;;;29.43;;
8281;SDS011;25606;42.686;23.136;2023-02-28T06:59:05;68.03;;;13.53;;
8281;SDS011;25606;42.686;23.136;2023-02-28T07:01:32;101.50;;;13.07;;
8281;SDS011;25606;42.686;23.136;2023-02-28T07:04:01;112.40;;;16.47;;
8281;SDS011;25606;42.686;23.136;2023-02-28T07:06:28;102.73;;;16.10;;
8281;SDS011;25606;42.686;23.136;2023-02-28T07:08:55;71.00;;;20.50;;
8281;SDS011;25606;42.686;23.136;2023-02-28T07:11:23;125.60;;;41.83;;
8281;SDS011;25606;42.686;23.136;2023-02-28T07:13:51;90.70;;;13.17;;
8281;SDS011;25606;42.686;23.136;2023-02-28T07:16:19;46.30;;;14.23;;
8281;SDS011;25606;42.686;23.136;2023-02-28T07:18:46;78.37;;;13.40;;
8281;SDS011;25606;42.686;23.136;2023-02-28T07:21:15;48.90;;;13.10;;
8281;SDS011;25606;42.686;23.136;2023-02-28T07:23:42;74.03;;;16.80;;
8281;SDS011;25606;42.686;23.136;2023-02-28T07:26:10;54.60;;;12.97;;
8281;SDS011;25606;42.686;23.136;2023-02-28T07:28:39;125.70;;;14.90;;
8281;SDS011;25606;42.686;23.136;2023-02-28T07:31:07;402.03;;;174.07;;
8281;SDS011;25606;42.686;23.136;2023-02-28T07:33:35;136.40;;;34.10;;
8281;SDS011;25606;42.686;23.136;2023-02-28T07:36:04;61.73;;;24.13;;
8281;SDS011;25606;42.686;23.136;2023-02-28T07:38:34;96.07;;;14.67;;
8281;SDS011;25606;42.686;23.136;2023-02-28T07:41:03;68.80;;;13.80;;
8281;SDS011;25606;42.686;23.136;2023-02-28T07:43:30;86.80;;;20.27;;
8281;SDS011;25606;42.686;23.136;2023-02-28T07:46:00;58.20;;;15.47;;
8281;SDS011;25606;42.686;23.136;2023-02-28T07:48:28;80.43;;;15.73;;
8281;SDS011;25606;42.686;23.136;2023-02-28T07:50:55;95.20;;;16.70;;
8281;SDS011;25606;42.686;23.136;2023-02-28T07:53:22;85.60;;;15.30;;
8281;SDS011;25606;42.686;23.136;2023-02-28T07:55:51;140.30;;;15.13;;
8281;SDS011;25606;42.686;23.136;2023-02-28T07:58:21;109.20;;;14.90;;
8281;SDS011;25606;42.686;23.136;2023-02-28T08:00:48;62.90;;;13.93;;
8281;SDS011;25606;42.686;23.136;2023-02-28T08:03:15;92.87;;;16.40;;
8281;SDS011;25606;42.686;23.136;2023-02-28T08:05:43;140.43;;;16.67;;
8281;SDS011;25606;42.686;23.136;2023-02-28T08:08:10;143.73;;;19.13;;
8281;SDS011;25606;42.686;23.136;2023-02-28T08:10:38;101.83;;;15.83;;
8281;SDS011;25606;42.686;23.136;2023-02-28T08:13:06;114.57;;;17.10;;
8281;SDS011;25606;42.686;23.136;2023-02-28T08:15:34;48.13;;;15.80;;
8281;SDS011;25606;42.686;23.136;2023-02-28T08:18:01;62.47;;;14.80;;
8281;SDS011;25606;42.686;23.136;2023-02-28T08:20:28;46.00;;;17.53;;
8281;SDS011;25606;42.686;23.136;2023-02-28T08:22:56;35.73;;;16.47;;
8281;SDS011;25606;42.686;23.136;2023-02-28T08:25:23;53.57;;;16.87;;
8281;SDS011;25606;42.686;23.136;2023-02-28T08:27:50;49.87;;;16.80;;
8281;SDS011;25606;42.686;23.136;2023-02-28T08:30:19;73.30;;;20.20;;
8281;SDS011;25606;42.686;23.136;2023-02-28T08:32:46;124.13;;;74.97;;
8281;SDS011;25606;42.686;23.136;2023-02-28T08:35:13;84.23;;;19.40;;
8281;SDS011;25606;42.686;23.136;2023-02-28T08:37:41;89.63;;;37.93;;
8281;SDS011;25606;42.686;23.136;2023-02-28T08:40:08;72.73;;;32.23;;
8281;SDS011;25606;42.686;23.136;2023-02-28T08:42:38;44.77;;;21.07;;
8281;SDS011;25606;42.686;23.136;2023-02-28T08:45:06;106.60;;;61.20;;
8281;SDS011;25606;42.686;23.136;2023-02-28T08:47:35;71.43;;;37.17;;
8281;SDS011;25606;42.686;23.136;2023-02-28T08:50:02;51.00;;;21.40;;
8281;SDS011;25606;42.686;23.136;2023-02-28T08:52:31;89.53;;;36.77;;
8281;SDS011;25606;42.686;23.136;2023-02-28T08:54:59;59.03;;;25.93;;
8281;SDS011;25606;42.686;23.136;2023-02-28T08:57:29;82.70;;;33.17;;
8281;SDS011;25606;42.686;23.136;2023-02-28T08:59:57;103.40;;;24.63;;
8281;SDS011;25606;42.686;23.136;2023-02-28T09:02:25;91.47;;;22.80;;
8281;SDS011;25606;42.686;23.136;2023-02-28T09:04:54;46.63;;;21.53;;
8281;SDS011;25606;42.686;23.136;2023-02-28T09:07:22;68.57;;;21.87;;
8281;SDS011;25606;42.686;23.136;2023-02-28T09:09:53;108.17;;;21.43;;
8281;SDS011;25606;42.686;23.136;2023-02-28T09:12:23;90.33;;;21.10;;
8281;SDS011;25606;42.686;23.136;2023-02-28T09:14:51;65.47;;;27.50;;
8281;SDS011;25606;42.686;23.136;2023-02-28T09:17:20;108.27;;;42.70;;
8281;SDS011;25606;42.686;23.136;2023-02-28T09:19:49;91.63;;;39.60;;
8281;SDS011;25606;42.686;23.136;2023-02-28T09:22:20;94.73;;;23.30;;
8281;SDS011;25606;42.686;23.136;2023-02-28T09:24:48;71.07;;;23.20;;
8281;SDS011;25606;42.686;23.136;2023-02-28T09:27:15;62.47;;;20.53;;
8281;SDS011;25606;42.686;23.136;2023-02-28T09:29:43;62.17;;;21.57;;
8281;SDS011;25606;42.686;23.136;2023-02-28T09:32:11;108.83;;;23.17;;
8281;SDS011;25606;42.686;23.136;2023-02-28T09:34:41;98.73;;;34.73;;
8281;SDS011;25606;42.686;23.136;2023-02-28T09:37:08;42.50;;;22.73;;
8281;SDS011;25606;42.686;23.136;2023-02-28T09:39:38;57.30;;;24.63;;
8281;SDS011;25606;42.686;23.136;2023-02-28T09:42:06;58.63;;;29.00;;
8281;SDS011;25606;42.686;23.136;2023-02-28T09:44:40;119.77;;;27.43;;
8281;SDS011;25606;42.686;23.136;2023-02-28T09:47:12;50.33;;;28.60;;
8281;SDS011;25606;42.686;23.136;2023-02-28T09:49:42;49.30;;;23.73;;
8281;SDS011;25606;42.686;23.136;2023-02-28T09:52:12;65.43;;;24.97;;
8281;SDS011;25606;42.686;23.136;2023-02-28T09:54:46;50.90;;;24.43;;
8281;SDS011;25606;42.686;23.136;2023-02-28T09:57:16;49.80;;;25.33;;
8281;SDS011;25606;42.686;23.136;2023-02-28T09:59:49;42.83;;;24.23;;
8281;SDS011;25606;42.686;23.136;2023-02-28T10:02:22;77.70;;;25.13;;
8281;SDS011;25606;42.686;23.136;2023-02-28T10:04:53;55.63;;;25.73;;
8281;SDS011;25606;42.686;23.136;2023-02-28T10:07:25;47.80;;;23.53;;
8281;SDS011;25606;42.686;23.136;2023-02-28T10:09:58;51.47;;;25.47;;
8281;SDS011;25606;42.686;23.136;2023-02-28T10:12:27;46.03;;;24.37;;
8281;SDS011;25606;42.686;23.136;2023-02-28T10:14:54;59.17;;;26.13;;
8281;SDS011;25606;42.686;23.136;2023-02-28T10:17:25;52.67;;;25.87;;
8281;SDS011;25606;42.686;23.136;2023-02-28T10:19:56;50.33;;;26.80;;
8281;SDS011;25606;42.686;23.136;2023-02-28T10:22:26;50.97;;;26.90;;
8281;SDS011;25606;42.686;23.136;2023-02-28T10:24:55;52.03;;;25.90;;
8281;SDS011;25606;42.686;23.136;2023-02-28T10:27:30;54.13;;;26.97;;
8281;SDS011;25606;42.686;23.136;2023-02-28T10:29:58;47.33;;;26.37;;
8281;SDS011;25606;42.686;23.136;2023-02-28T10:32:27;54.17;;;27.67;;
8281;SDS011;25606;42.686;23.136;2023-02-28T10:34:57;49.03;;;26.53;;
8281;SDS011;25606;42.686;23.136;2023-02-28T10:37:26;44.60;;;26.20;;
8281;SDS011;25606;42.686;23.136;2023-02-28T10:39:53;51.80;;;26.40;;
8281;SDS011;25606;42.686;23.136;2023-02-28T10:42:22;53.57;;;27.63;;
8281;SDS011;25606;42.686;23.136;2023-02-28T10:45:06;51.30;;;27.33;;
8281;SDS011;25606;42.686;23.136;2023-02-28T10:47:34;52.90;;;25.30;;
8281;SDS011;25606;42.686;23.136;2023-02-28T10:50:04;46.27;;;25.73;;
8281;SDS011;25606;42.686;23.136;2023-02-28T10:52:32;48.87;;;25.10;;
8281;SDS011;25606;42.686;23.136;2023-02-28T10:55:13;40.53;;;24.53;;
8281;SDS011;25606;42.686;23.136;2023-02-28T10:57:41;43.40;;;23.27;;
8281;SDS011;25606;42.686;23.136;2023-02-28T11:00:14;41.77;;;25.00;;
8281;SDS011;25606;42.686;23.136;2023-02-28T11:02:42;44.27;;;24.23;;
8281;SDS011;25606;42.686;23.136;2023-02-28T11:05:24;41.43;;;23.23;;
8281;SDS011;25606;42.686;23.136;2023-02-28T11:07:51;40.47;;;23.90;;
8281;SDS011;25606;42.686;23.136;2023-02-28T11:10:20;36.40;;;21.37;;
8281;SDS011;25606;42.686;23.136;2023-02-28T11:12:49;37.47;;;21.33;;
8281;SDS011;25606;42.686;23.136;2023-02-28T11:15:22;46.13;;;22.10;;
8281;SDS011;25606;42.686;23.136;2023-02-28T11:17:53;51.17;;;25.43;;
8281;SDS011;25606;42.686;23.136;2023-02-28T11:20:21;46.63;;;23.93;;
8281;SDS011;25606;42.686;23.136;2023-02-28T11:22:50;39.50;;;22.97;;
8281;SDS011;25606;42.686;23.136;2023-02-28T11:25:20;43.33;;;24.47;;
8281;SDS011;25606;42.686;23.136;2023-02-28T11:27:49;38.93;;;22.70;;
8281;SDS011;25606;42.686;23.136;2023-02-28T11:30:25;63.27;;;36.77;;
8281;SDS011;25606;42.686;23.136;2023-02-28T11:32:53;51.37;;;27.47;;
8281;SDS011;25606;42.686;23.136;2023-02-28T11:35:22;35.57;;;22.00;;
8281;SDS011;25606;42.686;23.136;2023-02-28T11:37:50;41.93;;;24.17;;
8281;SDS011;25606;42.686;23.136;2023-02-28T11:40:18;35.27;;;20.67;;
8281;SDS011;25606;42.686;23.136;2023-02-28T11:42:49;39.93;;;21.70;;
8281;SDS011;25606;42.686;23.136;2023-02-28T11:45:21;34.80;;;20.53;;
8281;SDS011;25606;42.686;23.136;2023-02-28T11:47:54;34.27;;;19.80;;
8281;SDS011;25606;42.686;23.136;2023-02-28T11:50:27;35.43;;;21.00;;
8281;SDS011;25606;42.686;23.136;2023-02-28T11:52:59;33.00;;;20.63;;
8281;SDS011;25606;42.686;23.136;2023-02-28T11:55:28;32.33;;;18.93;;
8281;SDS011;25606;42.686;23.136;2023-02-28T12:00:53;32.30;;;19.37;;
8281;SDS011;25606;42.686;23.136;2023-02-28T12:03:28;34.47;;;18.37;;
8281;SDS011;25606;42.686;23.136;2023-02-28T12:06:01;26.27;;;17.40;;
8281;SDS011;25606;42.686;23.136;2023-02-28T12:08:39;20.57;;;11.40;;
8281;SDS011;25606;42.686;23.136;2023-02-28T12:11:11;22.47;;;10.27;;
8281;SDS011;25606;42.686;23.136;2023-02-28T12:13:42;21.70;;;11.10;;
8281;SDS011;25606;42.686;23.136;2023-02-28T12:16:18;21.63;;;11.57;;
8281;SDS011;25606;42.686;23.136;2023-02-28T12:18:52;21.57;;;11.47;;
8281;SDS011;25606;42.686;23.136;2023-02-28T12:21:23;22.37;;;11.03;;
8281;SDS011;25606;42.686;23.136;2023-02-28T12:24:04;19.63;;;10.83;;
8281;SDS011;25606;42.686;23.136;2023-02-28T12:26:36;21.73;;;11.73;;
8281;SDS011;25606;42.686;23.136;2023-02-28T12:29:09;21.93;;;11.93;;
8281;SDS011;25606;42.686;23.136;2023-02-28T12:31:38;16.93;;;11.27;;
8281;SDS011;25606;42.686;23.136;2023-02-28T12:34:10;21.03;;;11.67;;
8281;SDS011;25606;42.686;23.136;2023-02-28T12:36:38;18.37;;;10.93;;
8281;SDS011;25606;42.686;23.136;2023-02-28T12:39:08;22.53;;;11.73;;
8281;SDS011;25606;42.686;23.136;2023-02-28T12:41:39;20.20;;;11.93;;
8281;SDS011;25606;42.686;23.136;2023-02-28T12:44:11;20.70;;;11.33;;
8281;SDS011;25606;42.686;23.136;2023-02-28T12:46:41;21.53;;;12.40;;
8281;SDS011;25606;42.686;23.136;2023-02-28T12:49:10;18.07;;;10.90;;
8281;SDS011;25606;42.686;23.136;2023-02-28T12:51:40;19.47;;;12.07;;
8281;SDS011;25606;42.686;23.136;2023-02-28T12:54:10;17.57;;;10.80;;
8281;SDS011;25606;42.686;23.136;2023-02-28T12:56:43;18.03;;;11.03;;
8281;SDS011;25606;42.686;23.136;2023-02-28T12:59:14;23.80;;;14.57;;
8281;SDS011;25606;42.686;23.136;2023-02-28T13:01:47;22.23;;;10.57;;
8281;SDS011;25606;42.686;23.136;2023-02-28T13:07:22;21.80;;;10.80;;
8281;SDS011;25606;42.686;23.136;2023-02-28T13:09:56;20.43;;;10.80;;
8281;SDS011;25606;42.686;23.136;2023-02-28T13:12:24;17.17;;;10.47;;
8281;SDS011;25606;42.686;23.136;2023-02-28T13:15:00;17.03;;;11.67;;
8281;SDS011;25606;42.686;23.136;2023-02-28T13:17:29;19.83;;;10.83;;
8281;SDS011;25606;42.686;23.136;2023-02-28T13:19:57;23.40;;;11.90;;
8281;SDS011;25606;42.686;23.136;2023-02-28T13:22:40;19.97;;;10.83;;
8281;SDS011;25606;42.686;23.136;2023-02-28T13:27:56;19.73;;;11.63;;
8281;SDS011;25606;42.686;23.136;2023-02-28T13:33:21;15.23;;;10.27;;
8281;SDS011;25606;42.686;23.136;2023-02-28T13:35:53;21.73;;;10.53;;
8281;SDS011;25606;42.686;23.136;2023-02-28T13:38:36;21.00;;;10.37;;
8281;SDS011;25606;42.686;23.136;2023-02-28T13:44:00;16.10;;;9.73;;
8281;SDS011;25606;42.686;23.136;2023-02-28T13:46:28;20.27;;;10.10;;
8281;SDS011;25606;42.686;23.136;2023-02-28T13:48:55;17.93;;;10.40;;
8281;SDS011;25606;42.686;23.136;2023-02-28T13:51:28;19.07;;;11.00;;
8281;SDS011;25606;42.686;23.136;2023-02-28T13:54:05;19.70;;;10.00;;
8281;SDS011;25606;42.686;23.136;2023-02-28T13:56:37;19.43;;;10.67;;
8281;SDS011;25606;42.686;23.136;2023-02-28T13:59:14;20.33;;;9.03;;
8281;SDS011;25606;42.686;23.136;2023-02-28T14:01:49;17.30;;;9.57;;
8281;SDS011;25606;42.686;23.136;2023-02-28T14:04:35;16.47;;;9.87;;
8281;SDS011;25606;42.686;23.136;2023-02-28T14:07:07;18.97;;;11.00;;
8281;SDS011;25606;42.686;23.136;2023-02-28T14:09:37;20.53;;;9.50;;
8281;SDS011;25606;42.686;23.136;2023-02-28T14:14:55;12.53;;;8.27;;
8281;SDS011;25606;42.686;23.136;2023-02-28T14:17:23;17.20;;;8.27;;
8281;SDS011;25606;42.686;23.136;2023-02-28T14:19:51;14.03;;;9.23;;
8281;SDS011;25606;42.686;23.136;2023-02-28T14:22:22;11.37;;;8.00;;
8281;SDS011;25606;42.686;23.136;2023-02-28T14:25:06;16.23;;;8.23;;
8281;SDS011;25606;42.686;23.136;2023-02-28T14:27:37;17.93;;;8.67;;
8281;SDS011;25606;42.686;23.136;2023-02-28T14:32:54;13.03;;;8.00;;
8281;SDS011;25606;42.686;23.136;2023-02-28T14:35:35;18.17;;;8.03;;
8281;SDS011;25606;42.686;23.136;2023-02-28T14:38:08;20.57;;;8.83;;
8281;SDS011;25606;42.686;23.136;2023-02-28T14:40:41;13.53;;;7.03;;
8281;SDS011;25606;42.686;23.136;2023-02-28T14:43:17;14.37;;;7.60;;
8281;SDS011;25606;42.686;23.136;2023-02-28T14:45:49;17.87;;;7.80;;
8281;SDS011;25606;42.686;23.136;2023-02-28T14:48:17;19.17;;;8.67;;
8281;SDS011;25606;42.686;23.136;2023-02-28T14:50:48;14.47;;;7.70;;
8281;SDS011;25606;42.686;23.136;2023-02-28T14:53:18;18.53;;;9.97;;
8281;SDS011;25606;42.686;23.136;2023-02-28T14:55:48;14.37;;;8.40;;
8281;SDS011;25606;42.686;23.136;2023-02-28T14:58:22;18.47;;;8.30;;
8281;SDS011;25606;42.686;23.136;2023-02-28T15:00:50;13.70;;;9.03;;
8281;SDS011;25606;42.686;23.136;2023-02-28T15:03:20;17.17;;;8.47;;